sensor_id;sensor_type;location;lat;lon;timestamp;P1;durP1;ratioP1;P2;durP2;ratioP2
5499;SDS011;2772;42.700;23.304;2023-02-19T00:02:07;43.47;;;20.50;;
5499;SDS011;2772;42.700;23.304;2023-02-19T00:04:34;41.43;;;15.70;;
5499;SDS011;2772;42.700;23.304;2023-02-19T00:07:00;47.37;;;20.30;;
5499;SDS011;2772;42.700;23.304;2023-02-19T00:09:27;47.10;;;20.00;;
5499;SDS011;2772;42.700;23.304;2023-02-19T00:11:54;39.33;;;17.97;;
5499;SDS011;2772;42.700;23.304;2023-02-19T00:14:22;29.23;;;16.00;;
5499;SDS011;2772;42.700;23.304;2023-02-19T00:16:49;48.60;;;22.37;;
5499;SDS011;2772;42.700;23.304;2023-02-19T00:19:17;30.17;;;16.20;;
5499;SDS011;2772;42.700;23.304;2023-02-19T00:21:45;55.13;;;24.00;;
5499;SDS011;2772;42.700;23.304;2023-02-19T00:24:12;44.07;;;19.07;;
5499;SDS011;2772;42.700;23.304;2023-02-19T00:26:40;39.83;;;18.40;;
5499;SDS011;2772;42.700;23.304;2023-02-19T00:29:08;37.03;;;18.43;;
5499;SDS011;2772;42.700;23.304;2023-02-19T00:31:38;43.00;;;21.97;;
5499;SDS011;2772;42.700;23.304;2023-02-19T00:34:05;43.83;;;18.63;;
5499;SDS011;2772;42.700;23.304;2023-02-19T00:36:33;35.67;;;18.67;;
5499;SDS011;2772;42.700;23.304;2023-02-19T00:39:02;46.13;;;21.33;;
5499;SDS011;2772;42.700;23.304;2023-02-19T00:41:29;42.77;;;20.13;;
5499;SDS011;2772;42.700;23.304;2023-02-19T00:43:57;45.73;;;21.37;;
5499;SDS011;2772;42.700;23.304;2023-02-19T00:46:25;42.80;;;21.50;;
5499;SDS011;2772;42.700;23.304;2023-02-19T00:48:55;40.20;;;18.47;;
5499;SDS011;2772;42.700;23.304;2023-02-19T00:51:23;42.27;;;20.57;;
5499;SDS011;2772;42.700;23.304;2023-02-19T00:53:50;55.63;;;21.40;;
5499;SDS011;2772;42.700;23.304;2023-02-19T00:56:17;51.70;;;17.20;;
5499;SDS011;2772;42.700;23.304;2023-02-19T00:58:45;43.53;;;19.90;;
5499;SDS011;2772;42.700;23.304;2023-02-19T01:01:12;34.20;;;17.80;;
5499;SDS011;2772;42.700;23.304;2023-02-19T01:03:39;35.47;;;17.53;;
5499;SDS011;2772;42.700;23.304;2023-02-19T01:06:08;37.00;;;16.50;;
5499;SDS011;2772;42.700;23.304;2023-02-19T01:08:37;39.13;;;17.70;;
5499;SDS011;2772;42.700;23.304;2023-02-19T01:11:04;34.83;;;18.10;;
5499;SDS011;2772;42.700;23.304;2023-02-19T01:13:32;33.20;;;16.67;;
5499;SDS011;2772;42.700;23.304;2023-02-19T01:16:02;34.10;;;17.17;;
5499;SDS011;2772;42.700;23.304;2023-02-19T01:18:30;36.83;;;16.50;;
5499;SDS011;2772;42.700;23.304;2023-02-19T01:20:57;30.30;;;16.07;;
5499;SDS011;2772;42.700;23.304;2023-02-19T01:23:25;21.90;;;11.27;;
5499;SDS011;2772;42.700;23.304;2023-02-19T01:25:52;17.93;;;9.90;;
5499;SDS011;2772;42.700;23.304;2023-02-19T01:28:18;18.97;;;10.30;;
5499;SDS011;2772;42.700;23.304;2023-02-19T01:30:46;26.50;;;12.00;;
5499;SDS011;2772;42.700;23.304;2023-02-19T01:33:13;15.53;;;9.90;;
5499;SDS011;2772;42.700;23.304;2023-02-19T01:35:40;22.27;;;12.20;;
5499;SDS011;2772;42.700;23.304;2023-02-19T01:38:06;22.10;;;11.30;;
5499;SDS011;2772;42.700;23.304;2023-02-19T01:40:34;27.97;;;13.23;;
5499;SDS011;2772;42.700;23.304;2023-02-19T01:43:01;30.63;;;11.73;;
5499;SDS011;2772;42.700;23.304;2023-02-19T01:45:28;20.57;;;9.20;;
5499;SDS011;2772;42.700;23.304;2023-02-19T01:48:02;23.43;;;9.80;;
5499;SDS011;2772;42.700;23.304;2023-02-19T01:50:35;14.00;;;8.53;;
5499;SDS011;2772;42.700;23.304;2023-02-19T01:53:07;13.03;;;8.20;;
5499;SDS011;2772;42.700;23.304;2023-02-19T01:55:38;15.20;;;9.10;;
5499;SDS011;2772;42.700;23.304;2023-02-19T01:58:06;18.63;;;9.77;;
5499;SDS011;2772;42.700;23.304;2023-02-19T02:00:35;21.43;;;9.70;;
5499;SDS011;2772;42.700;23.304;2023-02-19T02:03:02;20.43;;;9.77;;
5499;SDS011;2772;42.700;23.304;2023-02-19T02:05:34;16.50;;;9.77;;
5499;SDS011;2772;42.700;23.304;2023-02-19T02:08:09;16.77;;;8.13;;
5499;SDS011;2772;42.700;23.304;2023-02-19T02:10:53;17.33;;;8.23;;
5499;SDS011;2772;42.700;23.304;2023-02-19T02:13:21;19.77;;;9.30;;
5499;SDS011;2772;42.700;23.304;2023-02-19T02:15:51;19.60;;;9.47;;
5499;SDS011;2772;42.700;23.304;2023-02-19T02:18:30;18.63;;;10.37;;
5499;SDS011;2772;42.700;23.304;2023-02-19T02:21:19;13.97;;;8.90;;
5499;SDS011;2772;42.700;23.304;2023-02-19T02:24:01;27.90;;;9.20;;
5499;SDS011;2772;42.700;23.304;2023-02-19T02:26:43;17.70;;;9.20;;
5499;SDS011;2772;42.700;23.304;2023-02-19T02:29:30;25.57;;;9.80;;
5499;SDS011;2772;42.700;23.304;2023-02-19T02:32:28;13.33;;;8.00;;
5499;SDS011;2772;42.700;23.304;2023-02-19T02:34:59;16.83;;;8.63;;
5499;SDS011;2772;42.700;23.304;2023-02-19T02:37:29;13.27;;;8.80;;
5499;SDS011;2772;42.700;23.304;2023-02-19T02:39:59;17.90;;;9.20;;
5499;SDS011;2772;42.700;23.304;2023-02-19T02:42:27;15.17;;;8.60;;
5499;SDS011;2772;42.700;23.304;2023-02-19T02:44:54;21.83;;;8.90;;
5499;SDS011;2772;42.700;23.304;2023-02-19T02:47:42;19.57;;;10.20;;
5499;SDS011;2772;42.700;23.304;2023-02-19T02:50:14;16.57;;;9.70;;
5499;SDS011;2772;42.700;23.304;2023-02-19T02:52:46;13.17;;;8.50;;
5499;SDS011;2772;42.700;23.304;2023-02-19T02:55:33;17.90;;;8.87;;
5499;SDS011;2772;42.700;23.304;2023-02-19T02:58:03;22.63;;;9.30;;
5499;SDS011;2772;42.700;23.304;2023-02-19T03:00:31;20.67;;;9.47;;
5499;SDS011;2772;42.700;23.304;2023-02-19T03:03:15;14.83;;;8.70;;
5499;SDS011;2772;42.700;23.304;2023-02-19T03:05:44;19.47;;;9.83;;
5499;SDS011;2772;42.700;23.304;2023-02-19T03:08:18;17.60;;;8.80;;
5499;SDS011;2772;42.700;23.304;2023-02-19T03:10:51;15.00;;;9.70;;
5499;SDS011;2772;42.700;23.304;2023-02-19T03:13:22;16.83;;;9.37;;
5499;SDS011;2772;42.700;23.304;2023-02-19T03:16:11;21.07;;;10.10;;
5499;SDS011;2772;42.700;23.304;2023-02-19T03:19:01;19.73;;;11.13;;
5499;SDS011;2772;42.700;23.304;2023-02-19T03:21:48;21.33;;;11.67;;
5499;SDS011;2772;42.700;23.304;2023-02-19T03:24:20;17.33;;;10.50;;
5499;SDS011;2772;42.700;23.304;2023-02-19T03:27:06;21.63;;;11.70;;
5499;SDS011;2772;42.700;23.304;2023-02-19T03:29:36;22.53;;;10.77;;
5499;SDS011;2772;42.700;23.304;2023-02-19T03:32:05;30.90;;;12.00;;
5499;SDS011;2772;42.700;23.304;2023-02-19T03:34:37;24.60;;;11.90;;
5499;SDS011;2772;42.700;23.304;2023-02-19T03:37:09;21.27;;;11.40;;
5499;SDS011;2772;42.700;23.304;2023-02-19T03:39:38;26.13;;;11.33;;
5499;SDS011;2772;42.700;23.304;2023-02-19T03:42:12;22.67;;;11.77;;
5499;SDS011;2772;42.700;23.304;2023-02-19T03:44:49;19.53;;;11.07;;
5499;SDS011;2772;42.700;23.304;2023-02-19T03:47:27;23.03;;;10.90;;
5499;SDS011;2772;42.700;23.304;2023-02-19T03:50:00;25.90;;;11.23;;
5499;SDS011;2772;42.700;23.304;2023-02-19T03:52:37;21.70;;;11.10;;
5499;SDS011;2772;42.700;23.304;2023-02-19T03:55:09;25.70;;;11.70;;
5499;SDS011;2772;42.700;23.304;2023-02-19T03:57:44;16.30;;;10.20;;
5499;SDS011;2772;42.700;23.304;2023-02-19T04:00:15;14.40;;;9.40;;
5499;SDS011;2772;42.700;23.304;2023-02-19T04:02:47;15.70;;;9.47;;
5499;SDS011;2772;42.700;23.304;2023-02-19T04:05:21;12.93;;;8.43;;
5499;SDS011;2772;42.700;23.304;2023-02-19T04:07:52;14.93;;;8.00;;
5499;SDS011;2772;42.700;23.304;2023-02-19T04:10:22;13.97;;;8.00;;
5499;SDS011;2772;42.700;23.304;2023-02-19T04:12:52;11.67;;;8.03;;
5499;SDS011;2772;42.700;23.304;2023-02-19T04:15:23;18.63;;;6.90;;
5499;SDS011;2772;42.700;23.304;2023-02-19T04:17:54;11.27;;;6.60;;
5499;SDS011;2772;42.700;23.304;2023-02-19T04:20:26;15.40;;;6.47;;
5499;SDS011;2772;42.700;23.304;2023-02-19T04:22:55;13.07;;;6.67;;
5499;SDS011;2772;42.700;23.304;2023-02-19T04:25:23;8.60;;;5.80;;
5499;SDS011;2772;42.700;23.304;2023-02-19T04:27:52;8.97;;;6.10;;
5499;SDS011;2772;42.700;23.304;2023-02-19T04:30:19;7.63;;;5.70;;
5499;SDS011;2772;42.700;23.304;2023-02-19T04:32:46;5.80;;;5.20;;
5499;SDS011;2772;42.700;23.304;2023-02-19T04:35:13;7.33;;;4.90;;
5499;SDS011;2772;42.700;23.304;2023-02-19T04:37:41;8.00;;;4.70;;
5499;SDS011;2772;42.700;23.304;2023-02-19T04:40:08;9.60;;;6.47;;
5499;SDS011;2772;42.700;23.304;2023-02-19T04:42:35;7.90;;;5.90;;
5499;SDS011;2772;42.700;23.304;2023-02-19T04:45:02;6.90;;;5.03;;
5499;SDS011;2772;42.700;23.304;2023-02-19T04:47:30;8.50;;;5.40;;
5499;SDS011;2772;42.700;23.304;2023-02-19T04:49:56;8.40;;;5.57;;
5499;SDS011;2772;42.700;23.304;2023-02-19T04:52:23;5.80;;;4.83;;
5499;SDS011;2772;42.700;23.304;2023-02-19T04:54:51;10.90;;;5.20;;
5499;SDS011;2772;42.700;23.304;2023-02-19T04:57:18;6.13;;;5.23;;
5499;SDS011;2772;42.700;23.304;2023-02-19T04:59:45;6.63;;;4.60;;
5499;SDS011;2772;42.700;23.304;2023-02-19T05:02:12;4.80;;;4.40;;
5499;SDS011;2772;42.700;23.304;2023-02-19T05:04:38;5.43;;;4.70;;
5499;SDS011;2772;42.700;23.304;2023-02-19T05:07:07;8.53;;;5.03;;
5499;SDS011;2772;42.700;23.304;2023-02-19T05:09:34;6.90;;;5.40;;
5499;SDS011;2772;42.700;23.304;2023-02-19T05:12:02;7.37;;;4.70;;
5499;SDS011;2772;42.700;23.304;2023-02-19T05:14:29;8.33;;;5.23;;
5499;SDS011;2772;42.700;23.304;2023-02-19T05:16:55;7.27;;;4.50;;
5499;SDS011;2772;42.700;23.304;2023-02-19T05:19:22;14.90;;;5.37;;
5499;SDS011;2772;42.700;23.304;2023-02-19T05:21:49;9.90;;;5.40;;
5499;SDS011;2772;42.700;23.304;2023-02-19T05:24:16;5.50;;;4.60;;
5499;SDS011;2772;42.700;23.304;2023-02-19T05:26:42;5.87;;;4.97;;
5499;SDS011;2772;42.700;23.304;2023-02-19T05:29:10;8.60;;;5.60;;
5499;SDS011;2772;42.700;23.304;2023-02-19T05:31:37;9.10;;;6.40;;
5499;SDS011;2772;42.700;23.304;2023-02-19T05:34:04;10.93;;;6.80;;
5499;SDS011;2772;42.700;23.304;2023-02-19T05:36:31;16.23;;;8.57;;
5499;SDS011;2772;42.700;23.304;2023-02-19T05:38:57;14.33;;;9.13;;
5499;SDS011;2772;42.700;23.304;2023-02-19T05:41:25;17.83;;;9.47;;
5499;SDS011;2772;42.700;23.304;2023-02-19T05:43:53;16.87;;;10.00;;
5499;SDS011;2772;42.700;23.304;2023-02-19T05:46:23;16.77;;;9.20;;
5499;SDS011;2772;42.700;23.304;2023-02-19T05:48:51;14.47;;;9.00;;
5499;SDS011;2772;42.700;23.304;2023-02-19T05:51:19;14.40;;;9.20;;
5499;SDS011;2772;42.700;23.304;2023-02-19T05:53:47;22.23;;;10.43;;
5499;SDS011;2772;42.700;23.304;2023-02-19T05:56:19;19.30;;;10.57;;
5499;SDS011;2772;42.700;23.304;2023-02-19T05:58:51;21.33;;;8.50;;
5499;SDS011;2772;42.700;23.304;2023-02-19T06:01:22;23.33;;;10.00;;
5499;SDS011;2772;42.700;23.304;2023-02-19T06:03:52;17.60;;;7.80;;
5499;SDS011;2772;42.700;23.304;2023-02-19T06:06:19;19.23;;;9.27;;
5499;SDS011;2772;42.700;23.304;2023-02-19T06:08:46;16.03;;;8.50;;
5499;SDS011;2772;42.700;23.304;2023-02-19T06:11:14;16.50;;;8.20;;
5499;SDS011;2772;42.700;23.304;2023-02-19T06:13:41;17.63;;;8.03;;
5499;SDS011;2772;42.700;23.304;2023-02-19T06:16:08;14.80;;;8.07;;
5499;SDS011;2772;42.700;23.304;2023-02-19T06:18:37;16.30;;;8.33;;
5499;SDS011;2772;42.700;23.304;2023-02-19T06:21:06;15.20;;;8.97;;
5499;SDS011;2772;42.700;23.304;2023-02-19T06:23:35;15.40;;;8.37;;
5499;SDS011;2772;42.700;23.304;2023-02-19T06:26:06;14.23;;;8.20;;
5499;SDS011;2772;42.700;23.304;2023-02-19T06:28:34;19.63;;;7.60;;
5499;SDS011;2772;42.700;23.304;2023-02-19T06:31:01;13.80;;;9.20;;
5499;SDS011;2772;42.700;23.304;2023-02-19T06:33:28;13.20;;;8.10;;
5499;SDS011;2772;42.700;23.304;2023-02-19T06:35:57;17.80;;;8.47;;
5499;SDS011;2772;42.700;23.304;2023-02-19T06:38:26;27.77;;;13.50;;
5499;SDS011;2772;42.700;23.304;2023-02-19T06:40:53;11.77;;;7.80;;
5499;SDS011;2772;42.700;23.304;2023-02-19T06:43:19;17.87;;;10.60;;
5499;SDS011;2772;42.700;23.304;2023-02-19T06:45:46;14.70;;;8.83;;
5499;SDS011;2772;42.700;23.304;2023-02-19T06:48:13;16.50;;;8.97;;
5499;SDS011;2772;42.700;23.304;2023-02-19T06:50:40;21.27;;;8.93;;
5499;SDS011;2772;42.700;23.304;2023-02-19T06:53:08;15.87;;;8.37;;
5499;SDS011;2772;42.700;23.304;2023-02-19T06:55:35;12.63;;;7.80;;
5499;SDS011;2772;42.700;23.304;2023-02-19T06:58:04;18.20;;;7.47;;
5499;SDS011;2772;42.700;23.304;2023-02-19T07:00:31;14.20;;;8.20;;
5499;SDS011;2772;42.700;23.304;2023-02-19T07:02:58;9.00;;;6.40;;
5499;SDS011;2772;42.700;23.304;2023-02-19T07:05:24;11.67;;;6.70;;
5499;SDS011;2772;42.700;23.304;2023-02-19T07:07:51;14.97;;;6.23;;
5499;SDS011;2772;42.700;23.304;2023-02-19T07:10:19;22.93;;;8.20;;
5499;SDS011;2772;42.700;23.304;2023-02-19T07:12:46;12.00;;;7.50;;
5499;SDS011;2772;42.700;23.304;2023-02-19T07:15:13;16.60;;;8.10;;
5499;SDS011;2772;42.700;23.304;2023-02-19T07:17:39;9.40;;;6.47;;
5499;SDS011;2772;42.700;23.304;2023-02-19T07:20:06;13.07;;;7.13;;
5499;SDS011;2772;42.700;23.304;2023-02-19T07:22:33;9.63;;;6.77;;
5499;SDS011;2772;42.700;23.304;2023-02-19T07:25:00;14.93;;;8.03;;
5499;SDS011;2772;42.700;23.304;2023-02-19T07:27:28;17.70;;;7.50;;
5499;SDS011;2772;42.700;23.304;2023-02-19T07:29:55;12.80;;;6.97;;
5499;SDS011;2772;42.700;23.304;2023-02-19T07:32:21;9.43;;;7.10;;
5499;SDS011;2772;42.700;23.304;2023-02-19T07:34:48;11.47;;;7.70;;
5499;SDS011;2772;42.700;23.304;2023-02-19T07:37:15;19.90;;;7.90;;
5499;SDS011;2772;42.700;23.304;2023-02-19T07:39:41;12.13;;;6.87;;
5499;SDS011;2772;42.700;23.304;2023-02-19T07:42:08;11.00;;;7.97;;
5499;SDS011;2772;42.700;23.304;2023-02-19T07:44:36;10.73;;;6.87;;
5499;SDS011;2772;42.700;23.304;2023-02-19T07:47:03;11.00;;;8.07;;
5499;SDS011;2772;42.700;23.304;2023-02-19T07:49:30;12.40;;;7.50;;
5499;SDS011;2772;42.700;23.304;2023-02-19T07:51:57;23.50;;;11.63;;
5499;SDS011;2772;42.700;23.304;2023-02-19T07:54:23;29.50;;;12.07;;
5499;SDS011;2772;42.700;23.304;2023-02-19T07:56:50;22.63;;;8.80;;
5499;SDS011;2772;42.700;23.304;2023-02-19T07:59:17;11.97;;;7.20;;
5499;SDS011;2772;42.700;23.304;2023-02-19T08:01:47;19.97;;;9.07;;
5499;SDS011;2772;42.700;23.304;2023-02-19T08:04:31;48.97;;;16.70;;
5499;SDS011;2772;42.700;23.304;2023-02-19T08:06:58;42.23;;;16.10;;
5499;SDS011;2772;42.700;23.304;2023-02-19T08:09:25;14.60;;;7.00;;
5499;SDS011;2772;42.700;23.304;2023-02-19T08:11:51;15.57;;;7.33;;
5499;SDS011;2772;42.700;23.304;2023-02-19T08:14:32;18.43;;;9.10;;
5499;SDS011;2772;42.700;23.304;2023-02-19T08:17:00;14.00;;;8.80;;
5499;SDS011;2772;42.700;23.304;2023-02-19T08:19:27;11.60;;;7.57;;
5499;SDS011;2772;42.700;23.304;2023-02-19T08:21:54;8.40;;;5.23;;
5499;SDS011;2772;42.700;23.304;2023-02-19T08:24:20;16.87;;;8.60;;
5499;SDS011;2772;42.700;23.304;2023-02-19T08:26:47;6.10;;;5.50;;
5499;SDS011;2772;42.700;23.304;2023-02-19T08:29:14;13.00;;;7.17;;
5499;SDS011;2772;42.700;23.304;2023-02-19T08:31:40;13.10;;;6.90;;
5499;SDS011;2772;42.700;23.304;2023-02-19T08:34:09;14.23;;;6.33;;
5499;SDS011;2772;42.700;23.304;2023-02-19T08:36:36;11.53;;;5.47;;
5499;SDS011;2772;42.700;23.304;2023-02-19T08:39:03;13.30;;;8.00;;
5499;SDS011;2772;42.700;23.304;2023-02-19T08:41:29;14.70;;;8.32;;
5499;SDS011;2772;42.700;23.304;2023-02-19T08:43:56;13.60;;;9.80;;
5499;SDS011;2772;42.700;23.304;2023-02-19T08:46:23;24.17;;;8.73;;
5499;SDS011;2772;42.700;23.304;2023-02-19T08:48:50;16.80;;;6.83;;
5499;SDS011;2772;42.700;23.304;2023-02-19T08:51:18;18.47;;;8.40;;
5499;SDS011;2772;42.700;23.304;2023-02-19T08:53:45;12.90;;;6.27;;
5499;SDS011;2772;42.700;23.304;2023-02-19T08:56:13;13.50;;;7.10;;
5499;SDS011;2772;42.700;23.304;2023-02-19T08:58:41;4.80;;;4.40;;
5499;SDS011;2772;42.700;23.304;2023-02-19T09:01:08;5.23;;;4.60;;
5499;SDS011;2772;42.700;23.304;2023-02-19T09:03:36;8.77;;;5.00;;
5499;SDS011;2772;42.700;23.304;2023-02-19T09:06:03;9.87;;;4.73;;
5499;SDS011;2772;42.700;23.304;2023-02-19T09:08:31;10.00;;;5.67;;
5499;SDS011;2772;42.700;23.304;2023-02-19T09:10:58;11.73;;;7.07;;
5499;SDS011;2772;42.700;23.304;2023-02-19T09:13:25;9.30;;;6.27;;
5499;SDS011;2772;42.700;23.304;2023-02-19T09:15:52;68.07;;;25.67;;
5499;SDS011;2772;42.700;23.304;2023-02-19T09:18:21;12.90;;;5.23;;
5499;SDS011;2772;42.700;23.304;2023-02-19T09:20:48;7.33;;;4.07;;
5499;SDS011;2772;42.700;23.304;2023-02-19T09:23:15;4.57;;;4.13;;
5499;SDS011;2772;42.700;23.304;2023-02-19T09:25:43;7.43;;;4.10;;
5499;SDS011;2772;42.700;23.304;2023-02-19T09:28:09;8.00;;;4.40;;
5499;SDS011;2772;42.700;23.304;2023-02-19T09:30:36;11.60;;;7.60;;
5499;SDS011;2772;42.700;23.304;2023-02-19T09:33:03;9.57;;;5.27;;
5499;SDS011;2772;42.700;23.304;2023-02-19T09:35:30;5.50;;;4.57;;
5499;SDS011;2772;42.700;23.304;2023-02-19T09:37:57;10.47;;;5.93;;
5499;SDS011;2772;42.700;23.304;2023-02-19T09:40:26;12.70;;;6.67;;
5499;SDS011;2772;42.700;23.304;2023-02-19T09:42:54;7.73;;;5.40;;
5499;SDS011;2772;42.700;23.304;2023-02-19T09:45:22;5.85;;;4.50;;
5499;SDS011;2772;42.700;23.304;2023-02-19T09:47:52;9.47;;;5.50;;
5499;SDS011;2772;42.700;23.304;2023-02-19T09:50:22;7.07;;;5.57;;
5499;SDS011;2772;42.700;23.304;2023-02-19T09:52:57;5.33;;;4.00;;
5499;SDS011;2772;42.700;23.304;2023-02-19T09:55:29;4.73;;;4.23;;
5499;SDS011;2772;42.700;23.304;2023-02-19T09:58:02;4.10;;;3.73;;
5499;SDS011;2772;42.700;23.304;2023-02-19T10:00:40;23.40;;;10.13;;
5499;SDS011;2772;42.700;23.304;2023-02-19T10:03:09;13.23;;;5.40;;
5499;SDS011;2772;42.700;23.304;2023-02-19T10:05:39;10.40;;;4.77;;
5499;SDS011;2772;42.700;23.304;2023-02-19T10:08:08;6.67;;;5.07;;
5499;SDS011;2772;42.700;23.304;2023-02-19T10:10:40;5.90;;;4.90;;
5499;SDS011;2772;42.700;23.304;2023-02-19T10:13:12;5.33;;;4.73;;
5499;SDS011;2772;42.700;23.304;2023-02-19T10:15:44;5.80;;;5.17;;
5499;SDS011;2772;42.700;23.304;2023-02-19T10:18:17;10.03;;;4.97;;
5499;SDS011;2772;42.700;23.304;2023-02-19T10:20:46;11.27;;;5.43;;
5499;SDS011;2772;42.700;23.304;2023-02-19T10:23:14;9.03;;;5.73;;
5499;SDS011;2772;42.700;23.304;2023-02-19T10:25:43;6.40;;;5.07;;
5499;SDS011;2772;42.700;23.304;2023-02-19T10:28:14;7.93;;;6.60;;
5499;SDS011;2772;42.700;23.304;2023-02-19T10:30:43;7.40;;;4.67;;
5499;SDS011;2772;42.700;23.304;2023-02-19T10:33:14;12.13;;;7.30;;
5499;SDS011;2772;42.700;23.304;2023-02-19T10:35:51;6.83;;;4.80;;
5499;SDS011;2772;42.700;23.304;2023-02-19T10:38:21;8.23;;;5.77;;
5499;SDS011;2772;42.700;23.304;2023-02-19T10:40:56;7.30;;;5.30;;
5499;SDS011;2772;42.700;23.304;2023-02-19T10:43:27;11.53;;;5.00;;
5499;SDS011;2772;42.700;23.304;2023-02-19T10:45:58;6.77;;;5.10;;
5499;SDS011;2772;42.700;23.304;2023-02-19T10:48:27;8.80;;;5.60;;
5499;SDS011;2772;42.700;23.304;2023-02-19T10:50:58;9.97;;;5.33;;
5499;SDS011;2772;42.700;23.304;2023-02-19T10:53:39;23.80;;;7.17;;
5499;SDS011;2772;42.700;23.304;2023-02-19T10:56:08;5.23;;;4.33;;
5499;SDS011;2772;42.700;23.304;2023-02-19T10:58:38;9.83;;;6.10;;
5499;SDS011;2772;42.700;23.304;2023-02-19T11:01:10;8.30;;;5.67;;
5499;SDS011;2772;42.700;23.304;2023-02-19T11:03:40;6.13;;;4.63;;
5499;SDS011;2772;42.700;23.304;2023-02-19T11:06:08;7.30;;;5.20;;
5499;SDS011;2772;42.700;23.304;2023-02-19T11:08:44;8.70;;;4.97;;
5499;SDS011;2772;42.700;23.304;2023-02-19T11:11:23;12.40;;;5.37;;
5499;SDS011;2772;42.700;23.304;2023-02-19T11:13:56;26.10;;;5.97;;
5499;SDS011;2772;42.700;23.304;2023-02-19T11:16:35;7.37;;;5.50;;
5499;SDS011;2772;42.700;23.304;2023-02-19T11:19:04;14.00;;;6.60;;
5499;SDS011;2772;42.700;23.304;2023-02-19T11:21:31;10.47;;;6.77;;
5499;SDS011;2772;42.700;23.304;2023-02-19T11:23:58;8.63;;;5.53;;
5499;SDS011;2772;42.700;23.304;2023-02-19T11:26:31;7.43;;;6.03;;
5499;SDS011;2772;42.700;23.304;2023-02-19T11:29:10;7.53;;;4.77;;
5499;SDS011;2772;42.700;23.304;2023-02-19T11:31:43;5.60;;;4.20;;
5499;SDS011;2772;42.700;23.304;2023-02-19T11:34:22;9.27;;;5.90;;
5499;SDS011;2772;42.700;23.304;2023-02-19T11:37:06;5.30;;;4.60;;
5499;SDS011;2772;42.700;23.304;2023-02-19T11:39:34;5.60;;;4.47;;
5499;SDS011;2772;42.700;23.304;2023-02-19T11:42:11;5.47;;;4.20;;
5499;SDS011;2772;42.700;23.304;2023-02-19T11:44:53;5.60;;;4.37;;
5499;SDS011;2772;42.700;23.304;2023-02-19T11:50:28;5.23;;;4.10;;
5499;SDS011;2772;42.700;23.304;2023-02-19T11:53:10;6.50;;;4.00;;
5499;SDS011;2772;42.700;23.304;2023-02-19T11:55:45;5.50;;;4.03;;
5499;SDS011;2772;42.700;23.304;2023-02-19T12:01:28;4.63;;;4.03;;
5499;SDS011;2772;42.700;23.304;2023-02-19T12:04:19;17.03;;;4.60;;
5499;SDS011;2772;42.700;23.304;2023-02-19T12:07:08;8.87;;;5.10;;
5499;SDS011;2772;42.700;23.304;2023-02-19T12:09:46;8.73;;;4.10;;
5499;SDS011;2772;42.700;23.304;2023-02-19T12:12:27;9.03;;;4.77;;
5499;SDS011;2772;42.700;23.304;2023-02-19T12:15:15;8.93;;;4.10;;
5499;SDS011;2772;42.700;23.304;2023-02-19T12:17:59;4.50;;;4.10;;
5499;SDS011;2772;42.700;23.304;2023-02-19T12:20:40;7.03;;;4.60;;
5499;SDS011;2772;42.700;23.304;2023-02-19T12:23:23;16.67;;;5.70;;
5499;SDS011;2772;42.700;23.304;2023-02-19T12:26:02;6.40;;;3.87;;
5499;SDS011;2772;42.700;23.304;2023-02-19T12:31:46;18.43;;;4.20;;
5499;SDS011;2772;42.700;23.304;2023-02-19T12:34:39;9.97;;;4.33;;
5499;SDS011;2772;42.700;23.304;2023-02-19T12:37:21;11.23;;;4.80;;
5499;SDS011;2772;42.700;23.304;2023-02-19T12:39:56;7.07;;;4.60;;
5499;SDS011;2772;42.700;23.304;2023-02-19T12:42:40;4.23;;;3.77;;
5499;SDS011;2772;42.700;23.304;2023-02-19T12:45:17;5.27;;;4.27;;
5499;SDS011;2772;42.700;23.304;2023-02-19T12:47:56;18.73;;;4.50;;
5499;SDS011;2772;42.700;23.304;2023-02-19T12:50:28;20.77;;;5.27;;
5499;SDS011;2772;42.700;23.304;2023-02-19T12:52:58;3.90;;;3.60;;
5499;SDS011;2772;42.700;23.304;2023-02-19T12:55:29;7.50;;;4.20;;
5499;SDS011;2772;42.700;23.304;2023-02-19T12:58:01;4.20;;;3.77;;
5499;SDS011;2772;42.700;23.304;2023-02-19T13:00:30;7.20;;;4.73;;
5499;SDS011;2772;42.700;23.304;2023-02-19T13:03:02;4.23;;;3.83;;
5499;SDS011;2772;42.700;23.304;2023-02-19T13:05:39;21.27;;;4.30;;
5499;SDS011;2772;42.700;23.304;2023-02-19T13:08:13;9.97;;;4.30;;
5499;SDS011;2772;42.700;23.304;2023-02-19T13:10:48;9.73;;;4.67;;
5499;SDS011;2772;42.700;23.304;2023-02-19T13:13:22;4.77;;;4.27;;
5499;SDS011;2772;42.700;23.304;2023-02-19T13:15:54;7.53;;;4.33;;
5499;SDS011;2772;42.700;23.304;2023-02-19T13:18:26;7.87;;;5.77;;
5499;SDS011;2772;42.700;23.304;2023-02-19T13:20:59;6.10;;;4.50;;
5499;SDS011;2772;42.700;23.304;2023-02-19T13:23:27;5.50;;;4.47;;
5499;SDS011;2772;42.700;23.304;2023-02-19T13:29:14;10.50;;;5.03;;
5499;SDS011;2772;42.700;23.304;2023-02-19T13:31:58;7.93;;;4.87;;
5499;SDS011;2772;42.700;23.304;2023-02-19T13:34:46;13.03;;;5.20;;
5499;SDS011;2772;42.700;23.304;2023-02-19T13:37:23;14.77;;;4.63;;
5499;SDS011;2772;42.700;23.304;2023-02-19T13:39:51;13.40;;;4.67;;
5499;SDS011;2772;42.700;23.304;2023-02-19T13:42:23;8.07;;;5.03;;
5499;SDS011;2772;42.700;23.304;2023-02-19T13:44:52;8.10;;;3.80;;
5499;SDS011;2772;42.700;23.304;2023-02-19T13:50:16;14.43;;;4.07;;
5499;SDS011;2772;42.700;23.304;2023-02-19T13:52:45;10.23;;;4.50;;
5499;SDS011;2772;42.700;23.304;2023-02-19T14:01:04;21.83;;;5.53;;
5499;SDS011;2772;42.700;23.304;2023-02-19T14:03:38;13.67;;;5.97;;
5499;SDS011;2772;42.700;23.304;2023-02-19T14:06:10;4.70;;;4.30;;
5499;SDS011;2772;42.700;23.304;2023-02-19T14:08:49;6.73;;;4.00;;
5499;SDS011;2772;42.700;23.304;2023-02-19T14:14:23;9.13;;;4.37;;
5499;SDS011;2772;42.700;23.304;2023-02-19T14:19:51;8.50;;;5.27;;
5499;SDS011;2772;42.700;23.304;2023-02-19T14:25:34;11.43;;;4.70;;
5499;SDS011;2772;42.700;23.304;2023-02-19T14:28:09;18.27;;;4.93;;
5499;SDS011;2772;42.700;23.304;2023-02-19T14:30:42;10.40;;;4.90;;
5499;SDS011;2772;42.700;23.304;2023-02-19T14:33:14;5.30;;;4.70;;
5499;SDS011;2772;42.700;23.304;2023-02-19T14:35:43;4.87;;;4.47;;
5499;SDS011;2772;42.700;23.304;2023-02-19T14:38:13;20.33;;;5.50;;
5499;SDS011;2772;42.700;23.304;2023-02-19T14:40:45;15.50;;;5.00;;
5499;SDS011;2772;42.700;23.304;2023-02-19T14:43:14;8.97;;;4.70;;
5499;SDS011;2772;42.700;23.304;2023-02-19T14:45:43;9.40;;;5.50;;
5499;SDS011;2772;42.700;23.304;2023-02-19T14:48:15;11.27;;;4.70;;
5499;SDS011;2772;42.700;23.304;2023-02-19T14:50:45;12.97;;;5.97;;
5499;SDS011;2772;42.700;23.304;2023-02-19T14:53:15;9.87;;;5.70;;
5499;SDS011;2772;42.700;23.304;2023-02-19T14:55:46;13.20;;;5.90;;
5499;SDS011;2772;42.700;23.304;2023-02-19T14:58:15;7.60;;;5.10;;
5499;SDS011;2772;42.700;23.304;2023-02-19T15:00:48;13.93;;;6.50;;
5499;SDS011;2772;42.700;23.304;2023-02-19T15:03:25;7.93;;;5.10;;
5499;SDS011;2772;42.700;23.304;2023-02-19T15:06:03;8.20;;;5.70;;
5499;SDS011;2772;42.700;23.304;2023-02-19T15:08:36;6.10;;;5.23;;
5499;SDS011;2772;42.700;23.304;2023-02-19T15:11:08;9.03;;;5.40;;
5499;SDS011;2772;42.700;23.304;2023-02-19T15:13:40;18.30;;;8.17;;
5499;SDS011;2772;42.700;23.304;2023-02-19T15:16:10;23.53;;;11.33;;
5499;SDS011;2772;42.700;23.304;2023-02-19T15:18:42;10.93;;;6.23;;
5499;SDS011;2772;42.700;23.304;2023-02-19T15:21:11;13.60;;;7.80;;
5499;SDS011;2772;42.700;23.304;2023-02-19T15:23:47;11.63;;;6.70;;
5499;SDS011;2772;42.700;23.304;2023-02-19T15:26:18;9.03;;;6.57;;
5499;SDS011;2772;42.700;23.304;2023-02-19T15:28:55;12.13;;;6.70;;
5499;SDS011;2772;42.700;23.304;2023-02-19T15:31:24;9.33;;;6.40;;
5499;SDS011;2772;42.700;23.304;2023-02-19T15:33:51;15.60;;;9.17;;
5499;SDS011;2772;42.700;23.304;2023-02-19T15:36:21;10.30;;;6.30;;
5499;SDS011;2772;42.700;23.304;2023-02-19T15:38:52;17.77;;;9.50;;
5499;SDS011;2772;42.700;23.304;2023-02-19T15:41:22;11.77;;;7.70;;
5499;SDS011;2772;42.700;23.304;2023-02-19T15:43:55;18.73;;;7.73;;